Latest Weather Observations for Emerald

IDQ60801

Issued at 2:05 pm EST Thursday 2 October 2014 (issued every 30 minutes, with the page automatically refreshed every 10 minutes)

About weather observations | Map of weather stations | Latest weather observations for QLD | Other Formats
Station Details ID: 035264 Name: EMERALD AIRPORT Lat: -23.57 Lon: 148.18 Height: 189.4 m
Data from the previous 72 hours. | See also: Recent months at Emerald
Date/Time
EST
Temp
°C
App
Temp
°C
Dew
Point
Rel
Hum
%
Delta-T
°C
Wind Press
QNH
hPa
Press
MSL
hPa
Rain
since 9 am
mm
Dir
 
Spd
km/h
Gust
km/h
Spd
kts
Gust
kts
02/02:00pm 30.1 26.4 9.6 28 11.6 E 19 28 10 15 1016.0 - 0.0
02/01:30pm 30.1 26.0 8.5 26 12.0 E 20 30 11 16 1016.4 - 0.0
02/01:00pm 29.6 27.6 8.6 27 11.7 NE 9 17 5 9 1016.8 - 0.0
02/12:30pm 29.4 27.4 8.5 27 11.6 ESE 9 19 5 10 1017.3 - 0.0
02/12:00pm 28.9 26.5 8.6 28 11.2 ESE 11 20 6 11 1017.8 1016.9 0.0
02/11:30am 27.6 24.4 6.9 27 11.1 ESE 13 30 7 16 1018.3 - 0.0
02/11:00am 27.6 23.7 6.9 27 11.0 E 17 22 9 12 1018.9 - 0.0
02/10:30am 26.6 23.6 6.1 27 10.7 ESE 11 19 6 10 1019.1 - 0.0
02/10:00am 25.7 21.8 5.3 27 10.5 SE 15 22 8 12 1019.3 - 0.0
02/09:30am 24.9 19.8 4.1 26 10.4 ESE 20 28 11 15 1019.4 - 0.0
02/09:00am 24.0 18.0 3.3 26 10.1 SE 24 33 13 18 1019.6 1018.6 0.0
02/08:30am 23.4 16.5 4.4 29 9.5 SSE 30 37 16 20 1019.5 - 0.0
02/08:00am 22.4 14.8 4.0 30 9.0 SE 33 41 18 22 1019.3 - 0.0
02/07:30am 21.5 14.5 4.1 32 8.5 SE 30 37 16 20 1018.8 - 0.0
02/07:00am 20.9 14.4 4.5 34 8.0 SSE 28 39 15 21 1018.2 - 0.0
02/06:30am 20.2 14.8 4.7 36 7.6 SSE 22 30 12 16 1017.8 - 0.0
02/06:00am 19.6 14.3 4.9 38 7.2 SSE 22 28 12 15 1017.5 1016.6 0.0
02/05:30am 20.0 14.8 5.3 38 7.3 SSE 22 30 12 16 1017.1 - 0.0
02/05:00am 20.5 15.4 6.1 39 7.3 SSE 22 28 12 15 1016.7 - 0.0
02/04:30am 20.9 16.5 7.5 42 7.0 SSE 20 30 11 16 1016.4 - 0.0
02/04:00am 21.2 16.6 8.1 43 6.9 SSE 22 30 12 16 1016.0 - 0.0
02/03:30am 22.0 18.1 8.5 42 7.2 SSE 19 24 10 13 1015.7 - 0.0
02/03:00am 22.8 19.2 8.5 40 7.6 S 17 22 9 12 1015.6 1014.6 0.0
02/02:30am 21.4 18.0 9.3 46 6.5 S 17 20 9 11 1015.6 - 0.0
02/02:00am 20.3 18.1 9.5 50 5.8 S 11 13 6 7 1015.7 - 0.0
02/01:30am 21.6 19.0 9.2 45 6.7 S 13 22 7 12 1016.2 - 0.0
02/01:00am 19.5 18.9 11.8 61 4.3 S 6 7 3 4 1015.6 - 0.0
02/12:30am 20.4 19.6 11.1 55 5.1 NNE 6 7 3 4 1015.7 - 0.0
02/12:00am 21.2 21.2 12.3 57 5.1 NNE 4 7 2 4 1015.7 1014.7 0.0
 
Date/Time
EST
Temp
°C
App
Temp
°C
Dew
Point
Rel
Hum
%
Delta-T
°C
Wind Press
QNH
hPa
Press
MSL
hPa
Rain
since 9 am
mm
Dir
 
Spd
km/h
Gust
km/h
Spd
kts
Gust
kts
01/11:30pm 22.1 21.1 8.9 43 7.1 NW 4 7 2 4 1015.7 - 0.0
01/11:00pm 22.5 21.1 9.6 44 7.0 WNW 7 11 4 6 1015.8 - 0.0
01/10:30pm 22.1 21.1 10.9 49 6.2 W 7 7 4 4 1015.9 - 0.0
01/10:00pm 23.4 22.5 10.5 44 7.2 WNW 6 9 3 5 1016.0 - 0.0
01/09:30pm 23.5 22.1 9.5 41 7.7 N 7 11 4 6 1016.0 - 0.0
01/09:00pm 23.2 21.1 9.6 42 7.4 NNE 11 13 6 7 1016.0 1015.1 0.0
01/08:30pm 24.8 25.0 10.7 41 7.9 CALM 0 6 0 3 1016.0 - 0.0
01/08:00pm 24.9 23.4 8.4 35 8.9 NNE 6 7 3 4 1015.9 - 0.0
01/07:30pm 26.3 24.1 7.8 31 10.0 NE 9 11 5 6 1015.9 - 0.0
01/07:00pm 25.7 24.2 9.1 35 9.1 NE 7 9 4 5 1015.7 - 0.0
01/06:30pm 27.9 26.2 8.2 29 10.8 NE 7 9 4 5 1015.5 - 0.0
01/06:00pm 28.8 27.3 8.5 28 11.2 NNE 6 6 3 3 1015.3 1014.3 0.0
01/05:30pm 30.6 29.1 8.3 25 12.4 W 6 9 3 5 1015.0 - 0.0
01/05:00pm 31.2 29.9 7.6 23 13.0 SSW 4 7 2 4 1014.9 - 0.0
01/04:30pm 30.6 28.6 7.1 23 12.8 E 7 13 4 7 1014.9 - 0.0
01/04:00pm 31.0 28.9 8.1 24 12.7 ESE 9 15 5 8 1014.9 - 0.0
01/03:30pm 30.3 29.5 8.1 25 12.3 ESE 2 9 1 5 1015.1 - 0.0
01/03:00pm 30.7 28.6 8.4 25 12.4 NNW 9 15 5 8 1015.4 1014.4 0.0
01/02:30pm 30.1 28.3 7.9 25 12.2 NE 7 11 4 6 1015.8 - 0.0
01/02:00pm 29.1 26.6 8.2 27 11.5 SSE 11 17 6 9 1016.3 - 0.0
01/01:30pm 29.4 27.2 9.5 29 11.2 WSW 11 19 6 10 1016.7 - 0.0
01/01:00pm 28.7 26.4 8.9 29 11.0 SSE 11 15 6 8 1017.5 - 0.0
01/12:30pm 28.4 27.3 10.6 33 10.2 W 7 11 4 6 1018.0 - 0.0
01/12:00pm 26.9 25.5 9.7 34 9.6 SW 7 13 4 7 1018.5 1017.6 0.0
01/11:30am 26.5 24.9 10.2 36 9.2 WNW 9 15 5 8 1018.9 - 0.0
01/11:00am 25.7 24.1 10.3 38 8.6 NW 9 13 5 7 1019.5 - 0.0
01/10:30am 23.9 21.7 9.5 40 7.9 N 11 17 6 9 1020.0 - 0.0
01/10:00am 23.9 22.6 9.9 41 7.7 NNE 7 17 4 9 1020.3 - 0.0
01/09:30am 22.6 21.2 9.7 44 7.0 W 7 15 4 8 1020.7 - 0.0
01/09:00am 21.3 19.1 9.5 47 6.4 NW 11 15 6 8 1020.9 1020.0 0.0
01/08:30am 21.0 18.9 9.9 49 6.0 W 11 17 6 9 1020.8 - 0.0
01/08:00am 19.6 18.5 10.6 56 4.9 NW 7 13 4 7 1020.7 - 0.0
01/07:30am 18.1 17.4 11.4 65 3.7 NNE 6 9 3 5 1020.7 - 0.0
01/07:00am 16.4 15.8 11.8 74 2.5 NE 6 7 3 4 1020.4 - 0.0
01/06:30am 14.6 14.0 11.7 83 1.6 E 6 7 3 4 1020.0 - 0.0
01/06:00am 13.4 12.0 10.9 85 1.3 E 9 9 5 5 1019.6 1018.6 0.0
01/05:30am 13.7 12.7 11.0 84 1.4 ESE 7 9 4 5 1019.5 - 0.0
01/05:00am 13.4 12.5 10.6 83 1.5 SE 6 7 3 4 1019.0 - 0.0
01/04:30am 13.7 12.7 11.0 84 1.4 SSE 7 9 4 5 1018.7 - 0.0
01/04:00am 14.4 14.6 10.6 78 2.0 CALM 0 0 0 0 1018.3 - 0.0
01/03:30am 14.8 14.7 10.8 77 2.1 SSE 2 6 1 3 1018.2 - 0.0
01/03:00am 14.7 13.7 10.9 78 2.0 SE 7 7 4 4 1018.3 1017.4 0.0
01/02:30am 15.5 15.3 10.5 72 2.7 ENE 2 6 1 3 1018.3 - 0.0
01/02:00am 16.6 15.7 10.5 67 3.3 NE 6 7 3 4 1018.4 - 0.0
01/01:30am 16.4 15.5 11.3 72 2.8 ENE 7 9 4 5 1018.7 - 0.0
01/01:00am 16.7 15.3 11.0 69 3.1 NE 9 11 5 6 1018.9 - 0.0
01/12:30am 17.7 16.3 10.8 64 3.7 NNE 9 9 5 5 1019.1 - 0.0
01/12:00am 18.6 17.7 11.2 62 4.1 N 7 11 4 6 1019.3 1018.3 0.0
 
Date/Time
EST
Temp
°C
App
Temp
°C
Dew
Point
Rel
Hum
%
Delta-T
°C
Wind Press
QNH
hPa
Press
MSL
hPa
Rain
since 9 am
mm
Dir
 
Spd
km/h
Gust
km/h
Spd
kts
Gust
kts
30/11:30pm 19.2 17.1 11.3 60 4.4 NNE 13 19 7 10 1019.3 - 0.0
30/11:00pm 19.8 17.4 11.3 58 4.7 NNE 15 20 8 11 1019.0 - 0.0
30/10:30pm 19.9 17.3 10.6 55 5.1 NNE 15 20 8 11 1019.0 - 0.0
30/10:00pm 21.0 18.5 11.1 53 5.5 NE 15 20 8 11 1019.0 - 0.0
30/09:30pm 20.9 19.4 10.7 52 5.6 NE 9 13 5 7 1018.7 - 0.0
30/09:00pm 20.7 19.5 10.2 51 5.7 ENE 7 9 4 5 1018.6 1018.1 0.0
30/08:30pm 22.2 20.7 10.7 48 6.4 NE 9 11 5 6 1018.4 - 0.0
30/08:00pm 21.6 20.1 10.4 49 6.2 E 9 9 5 5 1018.3 - 0.0
30/07:30pm 22.7 21.0 9.8 44 7.1 E 9 13 5 7 1017.9 - 0.0
30/07:00pm 23.5 21.9 8.8 39 7.9 E 7 9 4 5 1017.6 - 0.0
30/06:30pm 23.3 21.4 9.0 40 7.7 E 9 11 5 6 1017.2 - 0.0
30/06:00pm 25.6 23.2 8.6 34 9.2 E 11 15 6 8 1016.7 1016.2 0.0
30/05:30pm 27.7 25.2 8.1 29 10.7 E 11 15 6 8 1016.4 - 0.0
30/05:00pm 28.2 25.1 7.4 27 11.3 ENE 13 19 7 10 1016.3 - 0.0
30/04:30pm 28.6 25.5 7.2 26 11.6 E 13 19 7 10 1016.1 - 0.0
30/04:00pm 28.4 25.6 7.1 26 11.5 E 11 15 6 8 1016.2 - 0.0
30/03:30pm 29.1 26.1 7.6 26 11.7 E 13 20 7 11 1016.2 - 0.0
30/03:00pm 28.9 26.4 8.0 27 11.4 NE 11 20 6 11 1016.5 1016.0 0.0
30/02:30pm 28.1 24.6 7.4 27 11.2 ENE 15 20 8 11 1016.8 - 0.0
30/02:00pm 28.0 24.1 8.8 30 10.6 NE 19 30 10 16 1017.3 - 0.0
30/01:30pm 27.7 25.0 9.0 31 10.4 E 13 20 7 11 1017.8 - 0.0
30/01:00pm 27.6 25.0 9.4 32 10.2 NNE 13 22 7 12 1018.3 - 0.0
30/12:30pm 27.2 23.1 10.0 34 9.7 E 22 33 12 18 1018.9 - 0.0
30/12:00pm 26.6 23.7 9.5 34 9.5 ENE 15 28 8 15 1019.7 1019.1 0.0
30/11:30am 27.1 24.3 11.2 37 9.1 ENE 17 37 9 20 1020.2 - 0.0
30/11:00am 25.7 23.3 11.5 41 8.1 N 15 22 8 12 1020.8 - 0.0
30/10:30am 24.9 23.2 11.1 42 7.8 NE 11 19 6 10 1021.2 - 0.0
30/10:00am 23.9 21.2 11.6 46 7.0 N 17 28 9 15 1021.6 - 0.0
30/09:30am 22.6 20.1 12.3 52 5.9 NNE 17 24 9 13 1021.9 - 0.0
30/09:00am 21.9 19.2 13.0 57 5.1 NNE 19 24 10 13 1022.0 1021.5 0.0
30/08:30am 20.9 18.6 13.1 61 4.5 NNE 17 24 9 13 1022.0 - 0.0
30/08:00am 19.9 17.7 13.4 66 3.7 NNE 17 24 9 13 1021.7 - 0.0
30/07:30am 18.7 17.4 13.8 73 2.8 NNE 13 17 7 9 1021.5 - 0.0
30/07:00am 17.0 17.1 14.5 85 1.4 NE 7 11 4 6 1021.2 - 0.0
30/06:30am 15.4 15.4 14.3 93 0.6 ENE 7 9 4 5 1020.9 - 0.0
30/06:00am 14.5 15.6 13.4 93 0.6 CALM 0 0 0 0 1020.6 1020.1 0.0
30/05:30am 14.7 15.8 13.4 92 0.7 CALM 0 0 0 0 1020.3 - 0.0
30/05:00am 15.1 15.0 13.8 92 0.7 ENE 7 9 4 5 1019.9 - 0.0
30/04:30am 15.5 15.4 13.9 90 0.9 NE 7 7 4 4 1019.4 - 0.0
30/04:00am 15.8 16.8 14.2 90 0.9 NNE 2 6 1 3 1019.1 - 0.0
30/03:30am 15.7 15.2 13.9 89 1.0 NE 9 11 5 6 1019.0 - 0.0
30/03:00am 16.0 15.6 14.0 88 1.1 ENE 9 11 5 6 1018.9 1018.4 0.0
30/02:30am 16.1 15.6 13.9 87 1.3 NE 9 11 5 6 1019.0 - 0.0
30/02:00am 16.6 16.2 14.1 85 1.4 ENE 9 13 5 7 1018.9 - 0.0
30/01:30am 16.7 16.3 14.2 85 1.4 ENE 9 11 5 6 1019.0 - 0.0
30/01:00am 17.0 16.8 13.7 81 1.9 ENE 7 9 4 5 1019.1 - 0.0
30/12:30am 17.4 16.9 13.9 80 2.0 ENE 9 11 5 6 1019.1 - 0.0
30/12:00am 17.9 17.3 13.6 76 2.5 NE 9 13 5 7 1019.3 1018.7 0.0
 
Date/Time
EST
Temp
°C
App
Temp
°C
Dew
Point
Rel
Hum
%
Delta-T
°C
Wind Press
QNH
hPa
Press
MSL
hPa
Rain
since 9 am
mm
Dir
 
Spd
km/h
Gust
km/h
Spd
kts
Gust
kts
29/11:30pm 18.5 17.4 13.1 71 3.1 NNE 11 15 6 8 1019.3 - 0.0
29/11:00pm 19.3 17.6 12.6 65 3.8 NNE 13 19 7 10 1019.3 - 0.0
29/10:30pm 19.9 18.0 11.9 60 4.5 NNE 13 17 7 9 1019.4 - 0.0
29/10:00pm 19.9 18.2 11.1 57 4.9 NE 11 15 6 8 1019.4 - 0.0
29/09:30pm 20.4 19.4 11.1 55 5.1 NE 7 11 4 6 1019.3 - 0.0
29/09:00pm 20.8 19.7 10.6 52 5.6 NE 7 9 4 5 1018.9 1018.4 0.0
29/08:30pm 21.7 20.1 10.2 48 6.3 NE 9 11 5 6 1018.8 - 0.0
29/08:00pm 22.2 20.2 10.0 46 6.7 NE 11 13 6 7 1018.5 - 0.0
29/07:30pm 23.2 21.5 9.9 43 7.3 NE 9 11 5 6 1018.0 - 0.0
29/07:00pm 24.1 22.4 9.7 40 7.9 NNE 9 13 5 7 1017.7 - 0.0
29/06:30pm 24.8 23.1 9.9 39 8.3 NE 9 13 5 7 1017.4 - 0.0
29/06:00pm 25.4 23.7 9.7 37 8.7 NE 9 11 5 6 1017.1 1016.6 0.0
29/05:30pm 26.8 24.6 9.2 33 9.7 ENE 11 15 6 8 1016.8 - 0.0
29/05:00pm 27.4 25.0 10.2 34 9.7 ENE 13 20 7 11 1016.5 - 0.0
29/04:30pm 27.6 24.0 9.9 33 10.0 ESE 19 22 10 12 1016.4 - 0.0
29/04:00pm 28.3 25.3 10.5 33 10.1 ENE 17 28 9 15 1016.3 - 0.0
29/03:30pm 28.6 26.0 10.8 33 10.2 ENE 15 28 8 15 1016.4 - 0.0
29/03:00pm 28.3 25.1 10.0 32 10.3 ESE 17 24 9 13 1016.6 1016.1 0.0
29/02:30pm 28.1 26.7 10.8 34 9.9 ENE 9 20 5 11 1016.8 - 0.0

Other Formats:

Comma delimited format used in spreadsheet applications
http://www.bom.gov.au/fwo/IDQ60801/IDQ60801.94363.axf

JavaScript Object Notation format (JSON) in row-major order
http://www.bom.gov.au/fwo/IDQ60801/IDQ60801.94363.json